Time;durP1;ratioP1;P1;durP2;ratioP2;P2;SDS_P1;SDS_P2;PMS_P1;PMS_P2;Temp;Humidity;BMP_temperature;BMP_pressure;BME280_temperature;BME280_humidity;BME280_pressure;Samples;Min_cycle;Max_cycle;Signal;HPM_P1;HPM_P2
2023/03/07 00:00:01;;;;;;;;;;;;;;;;;;6195153;23;20005;-80
2023/03/07 00:02:27;;;;;;;;;;;;;;;;;;6184315;23;20306;-79
2023/03/07 00:04:52;;;;;;;;;;;;;;;;;;6155510;23;19915;-78
2023/03/07 00:07:17;;;;;;;;;;;;;;;;;;6154654;23;19909;-78
2023/03/07 00:09:43;;;;;;;;;;;;;;;;;;6155193;23;19966;-78
2023/03/07 00:12:08;;;;;;;;;;;;;;;;;;6157494;23;19935;-78
2023/03/07 00:14:33;;;;;;;;;;;;;;;;;;6157807;23;20243;-78
2023/03/07 00:16:59;;;;;;;;;;;;;;;;;;6160346;23;19916;-78
2023/03/07 00:19:24;;;;;;;;;;;;;;;;;;6161428;23;19979;-78
2023/03/07 00:21:50;;;;;;;;;;;;;;;;;;6160156;23;19995;-78
2023/03/07 00:24:15;;;;;;;;;;;;;;;;;;6170663;23;19916;-78
2023/03/07 00:26:40;;;;;;;;;;;;;;;;;;6172722;23;19896;-78
2023/03/07 00:29:06;;;;;;;;;;;;;;;;;;6173093;23;19897;-78
2023/03/07 00:31:32;;;;;;;;;;;;;;;;;;6147787;23;19951;-79
2023/03/07 00:33:57;;;;;;;;;;;;;;;;;;6167464;23;19932;-78
2023/03/07 00:36:22;;;;;;;;;;;;;;;;;;6170732;23;20016;-78
2023/03/07 00:38:48;;;;;;;;;;;;;;;;;;6155738;23;19908;-78
2023/03/07 00:41:13;;;;;;;;;;;;;;;;;;6154537;23;19920;-79
2023/03/07 00:43:39;;;;;;;;;;;;;;;;;;6129623;23;19957;-78
2023/03/07 00:46:04;;;;;;;;;;;;;;;;;;6155981;23;19908;-79
2023/03/07 00:48:30;;;;;;;;;;;;;;;;;;6156482;23;19916;-78
2023/03/07 00:50:55;;;;;;;;;;;;;;;;;;6129881;23;19912;-78
2023/03/07 00:53:22;;;;;;;;;;;;;;;;;;6154356;23;19908;-78
2023/03/07 00:55:47;;;;;;;;;;;;;;;;;;6155502;23;20362;-78
2023/03/07 00:58:12;;;;;;;;;;;;;;;;;;6154151;23;19944;-78
2023/03/07 01:00:38;;;;;;;;;;;;;;;;;;6154596;23;19993;-78
2023/03/07 01:03:03;;;;;;;;;;;;;;;;;;6128797;23;19983;-77
2023/03/07 01:05:29;;;;;;;;;;;;;;;;;;6154577;23;19954;-78
2023/03/07 01:07:55;;;;;;;;;;;;;;;;;;6130309;23;20383;-78
2023/03/07 01:10:20;;;;;;;;;;;;;;;;;;6155199;23;19913;-78
2023/03/07 01:12:46;;;;;;;;;;;;;;;;;;6155485;23;19971;-78
2023/03/07 01:15:11;;;;;;;;;;;;;;;;;;6161188;23;19939;-78
2023/03/07 01:17:37;;;;;;;;;;;;;;;;;;6133255;23;19988;-77
2023/03/07 01:20:05;;;;;;;;;;;;;;;;;;6109002;23;19936;-78
2023/03/07 01:22:32;;;;;;;;;;;;;;;;;;6157816;23;19951;-77
2023/03/07 01:24:57;;;;;;;;;;;;;;;;;;6133206;23;19934;-78
2023/03/07 01:27:23;;;;;;;;;;;;;;;;;;6136042;23;19912;-79
2023/03/07 01:29:48;;;;;;;;;;;;;;;;;;6162716;23;19913;-79
2023/03/07 01:32:14;;;;;;;;;;;;;;;;;;6161790;23;19909;-77
2023/03/07 01:34:39;;;;;;;;;;;;;;;;;;6162745;23;19905;-78
2023/03/07 01:37:05;;;;;;;;;;;;;;;;;;6169015;23;19959;-78
2023/03/07 01:39:31;;;;;;;;;;;;;;;;;;6168654;23;19909;-78
2023/03/07 01:42:01;;;;;;;;;;;;;;;;;;6170485;23;21581;-78
2023/03/07 01:44:27;;;;;;;;;;;;;;;;;;6164904;23;19922;-78
2023/03/07 01:46:54;;;;;;;;;;;;;;;;;;6169910;23;20324;-78
2023/03/07 01:49:21;;;;;;;;;;;;;;;;;;6166416;23;19920;-78
2023/03/07 01:51:48;;;;;;;;;;;;;;;;;;6135709;23;19916;-78
2023/03/07 01:54:14;;;;;;;;;;;;;;;;;;6166897;23;19956;-77
2023/03/07 01:56:40;;;;;;;;;;;;;;;;;;6142960;23;20319;-78
2023/03/07 01:59:05;;;;;;;;;;;;;;;;;;6165845;23;19909;-78
2023/03/07 02:01:30;;;;;;;;;;;;;;;;;;6166340;23;19908;-78
2023/03/07 02:03:56;;;;;;;;;;;;;;;;;;6163438;23;19912;-77
2023/03/07 02:06:21;;;;;;;;;;;;;;;;;;6140878;23;19908;-77
2023/03/07 02:08:47;;;;;;;;;;;;;;;;;;6165458;23;19931;-78
2023/03/07 02:11:12;;;;;;;;;;;;;;;;;;6168616;23;19916;-79
2023/03/07 02:13:37;;;;;;;;;;;;;;;;;;6154450;23;19933;-77
2023/03/07 02:16:03;;;;;;;;;;;;;;;;;;6175818;23;19912;-78
2023/03/07 02:18:28;;;;;;;;;;;;;;;;;;6180487;23;19953;-77
2023/03/07 02:20:54;;;;;;;;;;;;;;;;;;6152137;23;19927;-77
2023/03/07 02:23:19;;;;;;;;;;;;;;;;;;6158766;23;19908;-77
2023/03/07 02:25:44;;;;;;;;;;;;;;;;;;6155143;23;19909;-77
2023/03/07 02:28:10;;;;;;;;;;;;;;;;;;6157331;23;19915;-77
2023/03/07 02:30:35;;;;;;;;;;;;;;;;;;6157045;23;19920;-77
2023/03/07 02:33:00;;;;;;;;;;;;;;;;;;6155354;23;19979;-77
2023/03/07 02:35:26;;;;;;;;;;;;;;;;;;6106264;23;20459;-77
2023/03/07 02:37:55;;;;;;;;;;;;;;;;;;6131757;23;20444;-77
2023/03/07 02:40:21;;;;;;;;;;;;;;;;;;6130923;23;19916;-77
2023/03/07 02:42:46;;;;;;;;;;;;;;;;;;6154881;23;19909;-77
2023/03/07 02:45:12;;;;;;;;;;;;;;;;;;6155527;23;19912;-77
2023/03/07 02:47:39;;;;;;;;;;;;;;;;;;6132452;23;19909;-77
2023/03/07 02:50:05;;;;;;;;;;;;;;;;;;6156887;23;20239;-77
2023/03/07 02:52:31;;;;;;;;;;;;;;;;;;6157534;23;20339;-77
2023/03/07 02:54:57;;;;;;;;;;;;;;;;;;6157641;23;20327;-77
2023/03/07 02:57:24;;;;;;;;;;;;;;;;;;6156775;23;19935;-77
2023/03/07 02:59:50;;;;;;;;;;;;;;;;;;6131830;23;20334;-77
2023/03/07 03:02:15;;;;;;;;;;;;;;;;;;6156460;23;20347;-77
2023/03/07 03:04:40;;;;;;;;;;;;;;;;;;6158402;23;19913;-77
2023/03/07 03:07:06;;;;;;;;;;;;;;;;;;6157643;23;19916;-77
2023/03/07 03:09:32;;;;;;;;;;;;;;;;;;6157184;23;19966;-78
2023/03/07 03:11:57;;;;;;;;;;;;;;;;;;6156642;23;19908;-78
2023/03/07 03:14:24;;;;;;;;;;;;;;;;;;6157389;23;19908;-78
2023/03/07 03:16:50;;;;;;;;;;;;;;;;;;6158079;23;20422;-77
2023/03/07 03:19:15;;;;;;;;;;;;;;;;;;6134421;23;19909;-77
2023/03/07 03:21:41;;;;;;;;;;;;;;;;;;6160610;23;20216;-77
2023/03/07 03:24:06;;;;;;;;;;;;;;;;;;6158981;23;19912;-77
2023/03/07 03:26:32;;;;;;;;;;;;;;;;;;6158063;23;20330;-77
2023/03/07 03:28:57;;;;;;;;;;;;;;;;;;6170004;23;19957;-78
2023/03/07 03:31:23;;;;;;;;;;;;;;;;;;6175469;23;19916;-77
2023/03/07 03:33:51;;;;;;;;;;;;;;;;;;6175363;23;19915;-77
2023/03/07 03:36:16;;;;;;;;;;;;;;;;;;6173243;23;19908;-77
2023/03/07 03:38:44;;;;;;;;;;;;;;;;;;6157210;23;19912;-77
2023/03/07 03:41:09;;;;;;;;;;;;;;;;;;6156396;23;19983;-77
2023/03/07 03:43:35;;;;;;;;;;;;;;;;;;6137924;23;19909;-77
2023/03/07 03:46:01;;;;;;;;;;;;;;;;;;6164041;23;19909;-77
2023/03/07 03:48:26;;;;;;;;;;;;;;;;;;6165537;23;20270;-78
2023/03/07 03:50:52;;;;;;;;;;;;;;;;;;6138317;23;19912;-77
2023/03/07 03:53:17;;;;;;;;;;;;;;;;;;6164788;23;19959;-77
2023/03/07 03:55:43;;;;;;;;;;;;;;;;;;6163873;23;19916;-78
2023/03/07 03:58:09;;;;;;;;;;;;;;;;;;6160787;23;19913;-77
2023/03/07 04:00:35;;;;;;;;;;;;;;;;;;6158623;23;19975;-77
2023/03/07 04:03:00;;;;;;;;;;;;;;;;;;6160272;23;20323;-78
2023/03/07 04:05:26;;;;;;;;;;;;;;;;;;6161580;23;19935;-78
2023/03/07 04:07:53;;;;;;;;;;;;;;;;;;6158650;23;19916;-78
2023/03/07 04:10:18;;;;;;;;;;;;;;;;;;6109450;23;19912;-78
2023/03/07 04:12:45;;;;;;;;;;;;;;;;;;6110254;23;19915;-78
2023/03/07 04:15:11;;;;;;;;;;;;;;;;;;6161838;23;19924;-78
2023/03/07 04:17:36;;;;;;;;;;;;;;;;;;6133003;23;19908;-78
2023/03/07 04:20:03;;;;;;;;;;;;;;;;;;6158192;23;19963;-78
2023/03/07 04:22:29;;;;;;;;;;;;;;;;;;6134620;23;19944;-78
2023/03/07 04:24:54;;;;;;;;;;;;;;;;;;6157215;23;20342;-77
2023/03/07 04:27:20;;;;;;;;;;;;;;;;;;6131412;23;19909;-77
2023/03/07 04:29:45;;;;;;;;;;;;;;;;;;6156181;23;19940;-77
2023/03/07 04:32:18;;;;;;;;;;;;;;;;;;6155054;23;19920;-78
2023/03/07 04:34:43;;;;;;;;;;;;;;;;;;6156455;23;19913;-78
2023/03/07 04:37:08;;;;;;;;;;;;;;;;;;6133235;23;19908;-78
2023/03/07 04:39:34;;;;;;;;;;;;;;;;;;6159807;23;19909;-78
2023/03/07 04:41:59;;;;;;;;;;;;;;;;;;6157876;23;19916;-78
2023/03/07 04:44:29;;;;;;;;;;;;;;;;;;6158106;23;20394;-77
2023/03/07 04:46:55;;;;;;;;;;;;;;;;;;6132342;23;19909;-78
2023/03/07 04:49:21;;;;;;;;;;;;;;;;;;6157578;23;19912;-78
2023/03/07 04:51:47;;;;;;;;;;;;;;;;;;6155029;23;20342;-77
2023/03/07 04:54:14;;;;;;;;;;;;;;;;;;6154800;23;19913;-78
2023/03/07 04:56:40;;;;;;;;;;;;;;;;;;6154462;23;20281;-77
2023/03/07 04:59:07;;;;;;;;;;;;;;;;;;6106408;23;19939;-78
2023/03/07 05:01:33;;;;;;;;;;;;;;;;;;6154799;23;19951;-77
2023/03/07 05:03:59;;;;;;;;;;;;;;;;;;6154162;23;19987;-78
2023/03/07 05:06:24;;;;;;;;;;;;;;;;;;6129207;23;19908;-78
2023/03/07 05:08:51;;;;;;;;;;;;;;;;;;6155160;23;19916;-77
2023/03/07 05:11:16;;;;;;;;;;;;;;;;;;6154344;23;20253;-78
2023/03/07 05:13:42;;;;;;;;;;;;;;;;;;6129933;23;19916;-78
2023/03/07 05:16:07;;;;;;;;;;;;;;;;;;6153741;23;20334;-78
2023/03/07 05:18:33;;;;;;;;;;;;;;;;;;6154532;23;19913;-78
2023/03/07 05:20:59;;;;;;;;;;;;;;;;;;6155923;23;19909;-78
2023/03/07 05:23:24;;;;;;;;;;;;;;;;;;6154965;23;19908;-78
2023/03/07 05:25:51;;;;;;;;;;;;;;;;;;6157048;23;19999;-78
2023/03/07 05:28:16;;;;;;;;;;;;;;;;;;6157633;23;20219;-78
2023/03/07 05:30:42;;;;;;;;;;;;;;;;;;6157036;23;19913;-77
2023/03/07 05:33:07;;;;;;;;;;;;;;;;;;6158002;23;19908;-78
2023/03/07 05:35:33;;;;;;;;;;;;;;;;;;6134161;23;19916;-77
2023/03/07 05:37:59;;;;;;;;;;;;;;;;;;6136670;23;19915;-78
2023/03/07 05:40:25;;;;;;;;;;;;;;;;;;6170997;23;19908;-78
2023/03/07 05:42:50;;;;;;;;;;;;;;;;;;6147452;23;20262;-78
2023/03/07 05:45:16;;;;;;;;;;;;;;;;;;6151728;23;19908;-78
2023/03/07 05:47:42;;;;;;;;;;;;;;;;;;6176626;23;20345;-78
2023/03/07 05:50:09;;;;;;;;;;;;;;;;;;6129644;23;19909;-77
2023/03/07 05:52:35;;;;;;;;;;;;;;;;;;6177295;23;19932;-77
2023/03/07 05:55:00;;;;;;;;;;;;;;;;;;6176464;23;19903;-77
2023/03/07 05:57:26;;;;;;;;;;;;;;;;;;6174888;23;19915;-77
2023/03/07 05:59:51;;;;;;;;;;;;;;;;;;6144684;23;19904;-77
2023/03/07 06:04:43;;;;;;;;;;;;;;;;;;6131347;23;19921;-80
2023/03/07 06:07:08;;;;;;;;;;;;;;;;;;6079677;23;19916;-81
2023/03/07 06:09:34;;;;;;;;;;;;;;;;;;6103179;23;19917;-80
2023/03/07 06:12:00;;;;;;;;;;;;;;;;;;6103318;23;20327;-79
2023/03/07 06:14:25;;;;;;;;;;;;;;;;;;6126054;23;19916;-80
2023/03/07 06:16:50;;;;;;;;;;;;;;;;;;6127771;23;19952;-80
2023/03/07 06:19:16;;;;;;;;;;;;;;;;;;6103484;23;19908;-79
2023/03/07 06:21:41;;;;;;;;;;;;;;;;;;6127480;23;19916;-81
2023/03/07 06:24:07;;;;;;;;;;;;;;;;;;6101400;23;20299;-80
2023/03/07 06:26:32;;;;;;;;;;;;;;;;;;6126658;23;19909;-79
2023/03/07 06:28:58;;;;;;;;;;;;;;;;;;6101554;23;19909;-80
2023/03/07 06:31:24;;;;;;;;;;;;;;;;;;6102276;23;19968;-79
2023/03/07 06:33:49;;;;;;;;;;;;;;;;;;6129000;23;19909;-82
2023/03/07 06:36:16;;;;;;;;;;;;;;;;;;6080458;23;20335;-79
2023/03/07 06:38:44;;;;;;;;;;;;;;;;;;6084864;23;19935;-81
2023/03/07 06:41:10;;;;;;;;;;;;;;;;;;6135873;23;19909;-81
2023/03/07 06:43:36;;;;;;;;;;;;;;;;;;6133693;23;19913;-82
2023/03/07 06:46:01;;;;;;;;;;;;;;;;;;6131933;23;19909;-82
2023/03/07 06:48:33;;;;;;;;;;;;;;;;;;6133636;23;19913;-81
2023/03/07 06:50:59;;;;;;;;;;;;;;;;;;6156507;23;19917;-81
2023/03/07 06:53:24;;;;;;;;;;;;;;;;;;6130346;23;19914;-80
2023/03/07 06:55:49;;;;;;;;;;;;;;;;;;6131161;23;19991;-81
2023/03/07 06:58:15;;;;;;;;;;;;;;;;;;6106402;23;19975;-81
2023/03/07 07:00:40;;;;;;;;;;;;;;;;;;6105411;23;19916;-80
2023/03/07 07:03:06;;;;;;;;;;;;;;;;;;6130857;23;20026;-79
2023/03/07 07:05:33;;;;;;;;;;;;;;;;;;6104428;23;20534;-80
2023/03/07 07:07:58;;;;;;;;;;;;;;;;;;6131206;23;19909;-82
2023/03/07 07:10:24;;;;;;;;;;;;;;;;;;6105969;23;19946;-80
2023/03/07 07:12:53;;;;;;;;;;;;;;;;;;6129517;23;19916;-81
2023/03/07 07:15:18;;;;;;;;;;;;;;;;;;6128523;23;19920;-78
2023/03/07 07:17:44;;;;;;;;;;;;;;;;;;6082007;23;19988;-81
2023/03/07 07:20:10;;;;;;;;;;;;;;;;;;6123355;23;19917;-79
2023/03/07 07:22:37;;;;;;;;;;;;;;;;;;6107555;23;19920;-81
2023/03/07 07:25:03;;;;;;;;;;;;;;;;;;6135527;23;19909;-81
2023/03/07 07:27:28;;;;;;;;;;;;;;;;;;6139572;23;19916;-83
2023/03/07 09:46:10;;;;;;;;;;;;;;;;;;6195118;23;19919;-86
2023/03/07 09:51:28;;;;;;;;;;;;;;;;;;6196684;23;19948;-86
2023/03/07 10:04:50;;;;;;;;;;;;;;;;;;6175744;23;19920;-84
2023/03/07 10:12:42;;;;;;;;;;;;;;;;;;6204921;23;19905;-85
2023/03/07 10:15:11;;;;;;;;;;;;;;;;;;6208547;23;19931;-84
2023/03/07 10:17:37;;;;;;;;;;;;;;;;;;6210238;23;19956;-85
2023/03/07 10:20:05;;;;;;;;;;;;;;;;;;6185217;23;19915;-84
2023/03/07 10:22:35;;;;;;;;;;;;;;;;;;6208885;23;19908;-84
2023/03/07 10:25:11;;;;;;;;;;;;;;;;;;6213099;23;19915;-85
2023/03/07 10:27:39;;;;;;;;;;;;;;;;;;6215002;23;19904;-84
2023/03/07 10:30:05;;;;;;;;;;;;;;;;;;6214498;23;19920;-83
2023/03/07 10:32:33;;;;;;;;;;;;;;;;;;6172411;23;19904;-85
2023/03/07 10:35:01;;;;;;;;;;;;;;;;;;6215095;23;19915;-85
2023/03/07 10:37:29;;;;;;;;;;;;;;;;;;6214885;23;19932;-85
2023/03/07 10:42:47;;;;;;;;;;;;;;;;;;6150668;23;19904;-84
2023/03/07 10:45:15;;;;;;;;;;;;;;;;;;6189198;23;19916;-82
2023/03/07 10:47:42;;;;;;;;;;;;;;;;;;6117179;23;19957;-83
2023/03/07 10:50:15;;;;;;;;;;;;;;;;;;6184995;23;19912;-85
2023/03/07 10:52:45;;;;;;;;;;;;;;;;;;6087384;23;20973;-84
2023/03/07 10:55:12;;;;;;;;;;;;;;;;;;6214431;23;19896;-85
2023/03/07 10:57:40;;;;;;;;;;;;;;;;;;6189952;23;19912;-84
2023/03/07 11:00:09;;;;;;;;;;;;;;;;;;6196998;23;19904;-85
2023/03/07 11:02:35;;;;;;;;;;;;;;;;;;6213943;23;19936;-85
2023/03/07 11:05:01;;;;;;;;;;;;;;;;;;6189369;23;19901;-84
2023/03/07 11:07:30;;;;;;;;;;;;;;;;;;6213896;23;19923;-85
2023/03/07 11:10:06;;;;;;;;;;;;;;;;;;6190923;23;19924;-83
2023/03/07 11:12:34;;;;;;;;;;;;;;;;;;6212592;23;19931;-84
2023/03/07 11:15:00;;;;;;;;;;;;;;;;;;6212566;23;19935;-83
2023/03/07 11:17:29;;;;;;;;;;;;;;;;;;6212417;23;19919;-83
2023/03/07 11:19:55;;;;;;;;;;;;;;;;;;6211442;23;19912;-83
2023/03/07 11:22:26;;;;;;;;;;;;;;;;;;6186802;23;19916;-84
2023/03/07 11:24:56;;;;;;;;;;;;;;;;;;6211602;23;19897;-80
2023/03/07 11:27:22;;;;;;;;;;;;;;;;;;6213757;23;19912;-83
2023/03/07 11:29:47;;;;;;;;;;;;;;;;;;6163497;23;19952;-83
2023/03/07 11:32:16;;;;;;;;;;;;;;;;;;6164596;23;19900;-84
2023/03/07 11:34:42;;;;;;;;;;;;;;;;;;6213705;23;19919;-85
2023/03/07 11:37:08;;;;;;;;;;;;;;;;;;6188228;23;19919;-85
2023/03/07 11:39:34;;;;;;;;;;;;;;;;;;6164174;23;19908;-83
2023/03/07 11:42:03;;;;;;;;;;;;;;;;;;6187078;23;19908;-83
2023/03/07 11:44:28;;;;;;;;;;;;;;;;;;6212995;23;19919;-85
2023/03/07 11:46:57;;;;;;;;;;;;;;;;;;6211697;23;19908;-83
2023/03/07 11:49:25;;;;;;;;;;;;;;;;;;6210817;23;19908;-84
2023/03/07 11:51:51;;;;;;;;;;;;;;;;;;6183394;23;19908;-84
2023/03/07 11:54:17;;;;;;;;;;;;;;;;;;6206271;23;20314;-85
2023/03/07 11:56:45;;;;;;;;;;;;;;;;;;6183112;23;19948;-84
2023/03/07 11:59:16;;;;;;;;;;;;;;;;;;6206649;23;19909;-83
2023/03/07 12:01:50;;;;;;;;;;;;;;;;;;6186996;23;19892;-84
2023/03/07 12:04:16;;;;;;;;;;;;;;;;;;6197932;23;19927;-79
2023/03/07 12:06:41;;;;;;;;;;;;;;;;;;6192780;23;19908;-80
2023/03/07 12:09:07;;;;;;;;;;;;;;;;;;6166651;23;20004;-79
2023/03/07 12:11:32;;;;;;;;;;;;;;;;;;6142140;23;19919;-79
2023/03/07 12:13:58;;;;;;;;;;;;;;;;;;6191577;23;20413;-80
2023/03/07 12:16:26;;;;;;;;;;;;;;;;;;6191994;23;19908;-78
2023/03/07 12:19:03;;;;;;;;;;;;;;;;;;6167976;23;19912;-80
2023/03/07 12:21:29;;;;;;;;;;;;;;;;;;6193217;23;19991;-79
2023/03/07 12:23:54;;;;;;;;;;;;;;;;;;6145496;23;19904;-79
2023/03/07 12:26:20;;;;;;;;;;;;;;;;;;6196528;23;20370;-81
2023/03/07 12:28:46;;;;;;;;;;;;;;;;;;6170751;23;20341;-79
2023/03/07 12:31:11;;;;;;;;;;;;;;;;;;6171801;23;19912;-80
2023/03/07 12:33:37;;;;;;;;;;;;;;;;;;6147635;23;19912;-77
2023/03/07 12:36:03;;;;;;;;;;;;;;;;;;6170658;23;19935;-79
2023/03/07 12:38:28;;;;;;;;;;;;;;;;;;6171586;23;20556;-79
2023/03/07 12:40:55;;;;;;;;;;;;;;;;;;6172438;23;19908;-79
2023/03/07 12:43:21;;;;;;;;;;;;;;;;;;6148102;23;19947;-80
2023/03/07 12:45:46;;;;;;;;;;;;;;;;;;6174753;23;19932;-79
2023/03/07 12:48:12;;;;;;;;;;;;;;;;;;6148999;23;20237;-80
2023/03/07 12:50:38;;;;;;;;;;;;;;;;;;6195595;23;19931;-80
2023/03/07 12:53:04;;;;;;;;;;;;;;;;;;6170714;23;19909;-81
2023/03/07 12:55:29;;;;;;;;;;;;;;;;;;6172805;23;19995;-79
2023/03/07 12:57:55;;;;;;;;;;;;;;;;;;6201546;23;19908;-80
2023/03/07 13:00:21;;;;;;;;;;;;;;;;;;6200438;23;19956;-79
2023/03/07 13:02:47;;;;;;;;;;;;;;;;;;6178046;23;19914;-80
2023/03/07 13:05:12;;;;;;;;;;;;;;;;;;6199428;23;19912;-80
2023/03/07 13:07:38;;;;;;;;;;;;;;;;;;6174123;23;20408;-78
2023/03/07 13:10:03;;;;;;;;;;;;;;;;;;6150031;23;19912;-80
2023/03/07 13:12:30;;;;;;;;;;;;;;;;;;6173791;23;20235;-78
2023/03/07 13:14:55;;;;;;;;;;;;;;;;;;6198309;23;19915;-80
2023/03/07 13:17:21;;;;;;;;;;;;;;;;;;6148835;23;19908;-80
2023/03/07 13:19:47;;;;;;;;;;;;;;;;;;6198261;23;19913;-79
2023/03/07 13:22:12;;;;;;;;;;;;;;;;;;6197276;23;19908;-79
2023/03/07 13:24:38;;;;;;;;;;;;;;;;;;6149852;23;19986;-79
2023/03/07 13:27:04;;;;;;;;;;;;;;;;;;6199150;23;19908;-79
2023/03/07 13:29:30;;;;;;;;;;;;;;;;;;6172332;23;19952;-80
2023/03/07 13:31:55;;;;;;;;;;;;;;;;;;6171406;23;19919;-79
2023/03/07 13:34:21;;;;;;;;;;;;;;;;;;6196508;23;20034;-79
2023/03/07 13:36:46;;;;;;;;;;;;;;;;;;6193790;23;19912;-80
2023/03/07 13:39:12;;;;;;;;;;;;;;;;;;6168233;23;19908;-80
2023/03/07 13:41:37;;;;;;;;;;;;;;;;;;6143932;23;19912;-79
2023/03/07 13:44:04;;;;;;;;;;;;;;;;;;6193394;23;19920;-80
2023/03/07 13:46:29;;;;;;;;;;;;;;;;;;6197834;23;19958;-80
2023/03/07 13:48:55;;;;;;;;;;;;;;;;;;6196792;23;19908;-81
2023/03/07 13:51:20;;;;;;;;;;;;;;;;;;6148431;23;19931;-80
2023/03/07 13:53:46;;;;;;;;;;;;;;;;;;6197444;23;19994;-79
2023/03/07 13:56:12;;;;;;;;;;;;;;;;;;6197263;23;19915;-79
2023/03/07 13:58:37;;;;;;;;;;;;;;;;;;6148625;23;19968;-79
2023/03/07 14:01:03;;;;;;;;;;;;;;;;;;6198594;23;19908;-79
2023/03/07 14:03:29;;;;;;;;;;;;;;;;;;6196628;23;19916;-79
2023/03/07 14:05:55;;;;;;;;;;;;;;;;;;6170314;23;20268;-80
2023/03/07 14:08:20;;;;;;;;;;;;;;;;;;6171043;23;19921;-80
2023/03/07 14:10:47;;;;;;;;;;;;;;;;;;6196902;23;19916;-80
2023/03/07 14:13:12;;;;;;;;;;;;;;;;;;6196070;23;19916;-80
2023/03/07 14:15:38;;;;;;;;;;;;;;;;;;6147878;23;19912;-80
2023/03/07 14:18:03;;;;;;;;;;;;;;;;;;6145997;23;19908;-81
2023/03/07 14:20:29;;;;;;;;;;;;;;;;;;6169894;23;19932;-80
2023/03/07 14:22:54;;;;;;;;;;;;;;;;;;6194630;23;19908;-79
2023/03/07 14:25:20;;;;;;;;;;;;;;;;;;6168614;23;19909;-79
2023/03/07 14:27:46;;;;;;;;;;;;;;;;;;6169216;23;19919;-80
2023/03/07 14:30:14;;;;;;;;;;;;;;;;;;6193735;23;19912;-80
2023/03/07 14:32:46;;;;;;;;;;;;;;;;;;6195581;23;19908;-80
2023/03/07 14:35:14;;;;;;;;;;;;;;;;;;6167888;23;19987;-79
2023/03/07 14:37:39;;;;;;;;;;;;;;;;;;6143206;23;19912;-79
2023/03/07 14:40:07;;;;;;;;;;;;;;;;;;6143195;23;19951;-80
2023/03/07 14:42:33;;;;;;;;;;;;;;;;;;6167234;23;19908;-80
2023/03/07 14:44:58;;;;;;;;;;;;;;;;;;6168445;23;19908;-81
2023/03/07 14:47:24;;;;;;;;;;;;;;;;;;6169062;23;19915;-81
2023/03/07 14:49:50;;;;;;;;;;;;;;;;;;6168403;23;19915;-79
2023/03/07 14:52:15;;;;;;;;;;;;;;;;;;6168687;23;19916;-81
2023/03/07 14:54:43;;;;;;;;;;;;;;;;;;6191352;23;19908;-79
2023/03/07 14:57:09;;;;;;;;;;;;;;;;;;6192838;23;19916;-79
2023/03/07 14:59:35;;;;;;;;;;;;;;;;;;6169197;23;19931;-80
2023/03/07 15:02:00;;;;;;;;;;;;;;;;;;6194288;23;19919;-79
2023/03/07 15:04:27;;;;;;;;;;;;;;;;;;6169297;23;19912;-80
2023/03/07 15:06:53;;;;;;;;;;;;;;;;;;6195664;23;19908;-81
2023/03/07 15:09:18;;;;;;;;;;;;;;;;;;6145454;23;20040;-80
2023/03/07 15:11:44;;;;;;;;;;;;;;;;;;6145358;23;19909;-81
2023/03/07 15:14:10;;;;;;;;;;;;;;;;;;6168891;23;20334;-80
2023/03/07 15:16:40;;;;;;;;;;;;;;;;;;6168350;23;19915;-81
2023/03/07 15:19:06;;;;;;;;;;;;;;;;;;6194252;23;19908;-79
2023/03/07 15:21:31;;;;;;;;;;;;;;;;;;6146048;23;19983;-81
2023/03/07 15:23:57;;;;;;;;;;;;;;;;;;6197244;23;19904;-80
2023/03/07 15:26:23;;;;;;;;;;;;;;;;;;6172125;23;19932;-81
2023/03/07 15:28:49;;;;;;;;;;;;;;;;;;6148337;23;20538;-80
2023/03/07 15:31:15;;;;;;;;;;;;;;;;;;6145919;23;19912;-81
2023/03/07 15:33:41;;;;;;;;;;;;;;;;;;6169924;23;19912;-81
2023/03/07 15:36:07;;;;;;;;;;;;;;;;;;6196554;23;19908;-81
2023/03/07 15:38:32;;;;;;;;;;;;;;;;;;6170660;23;19908;-80
2023/03/07 15:40:58;;;;;;;;;;;;;;;;;;6195211;23;19952;-80
2023/03/07 15:43:24;;;;;;;;;;;;;;;;;;6169789;23;19915;-80
2023/03/07 15:45:49;;;;;;;;;;;;;;;;;;6143331;23;19919;-80
2023/03/07 15:48:22;;;;;;;;;;;;;;;;;;6192427;23;19994;-80
2023/03/07 15:50:48;;;;;;;;;;;;;;;;;;6192850;23;19932;-80
2023/03/07 15:53:15;;;;;;;;;;;;;;;;;;6203326;23;19904;-86
2023/03/07 16:09:24;;;;;;;;;;;;;;;;;;6147611;23;19931;-83
2023/03/07 16:11:50;;;;;;;;;;;;;;;;;;6180086;23;19959;-84
2023/03/07 16:14:25;;;;;;;;;;;;;;;;;;6113263;23;19905;-85
2023/03/07 16:16:54;;;;;;;;;;;;;;;;;;6149314;23;19936;-83
2023/03/07 16:19:23;;;;;;;;;;;;;;;;;;6105837;23;19936;-78
2023/03/07 16:21:49;;;;;;;;;;;;;;;;;;6146544;23;19916;-81
2023/03/07 16:24:35;;;;;;;;;;;;;;;;;;6109757;23;19916;-78
2023/03/07 16:27:01;;;;;;;;;;;;;;;;;;6154906;23;19909;-77
2023/03/07 16:29:27;;;;;;;;;;;;;;;;;;6130350;23;19909;-78
2023/03/07 16:31:53;;;;;;;;;;;;;;;;;;6105212;23;19909;-77
2023/03/07 16:34:18;;;;;;;;;;;;;;;;;;6128289;23;19905;-78
2023/03/07 16:36:46;;;;;;;;;;;;;;;;;;6130176;23;19967;-78
2023/03/07 16:39:12;;;;;;;;;;;;;;;;;;6080356;23;19909;-77
2023/03/07 16:41:38;;;;;;;;;;;;;;;;;;6128874;23;19951;-76
2023/03/07 16:44:03;;;;;;;;;;;;;;;;;;6129309;23;19913;-77
2023/03/07 16:46:29;;;;;;;;;;;;;;;;;;6129461;23;19931;-77
2023/03/07 16:48:58;;;;;;;;;;;;;;;;;;6127884;23;19909;-77
2023/03/07 16:51:26;;;;;;;;;;;;;;;;;;6127970;23;20393;-77
2023/03/07 16:53:52;;;;;;;;;;;;;;;;;;6104518;23;19909;-77
2023/03/07 16:56:17;;;;;;;;;;;;;;;;;;6129651;23;19916;-76
2023/03/07 16:58:46;;;;;;;;;;;;;;;;;;6128560;23;19909;-77
2023/03/07 17:01:11;;;;;;;;;;;;;;;;;;6130997;23;19905;-77
2023/03/07 17:03:37;;;;;;;;;;;;;;;;;;6103867;23;19916;-79
2023/03/07 17:06:02;;;;;;;;;;;;;;;;;;6127856;23;20258;-79
2023/03/07 17:08:28;;;;;;;;;;;;;;;;;;6130627;23;19991;-76
2023/03/07 17:10:53;;;;;;;;;;;;;;;;;;6104612;23;19924;-76
2023/03/07 17:13:20;;;;;;;;;;;;;;;;;;6130420;23;20295;-78
2023/03/07 17:15:45;;;;;;;;;;;;;;;;;;6154804;23;19916;-78
2023/03/07 17:18:11;;;;;;;;;;;;;;;;;;6080785;23;19909;-77
2023/03/07 17:20:37;;;;;;;;;;;;;;;;;;6159020;23;19913;-78
2023/03/07 17:23:02;;;;;;;;;;;;;;;;;;6097596;23;19909;-80
2023/03/07 17:25:28;;;;;;;;;;;;;;;;;;6136504;23;19909;-76
2023/03/07 17:27:54;;;;;;;;;;;;;;;;;;6134395;23;19913;-78
2023/03/07 17:30:20;;;;;;;;;;;;;;;;;;6135712;23;20094;-76
2023/03/07 17:32:45;;;;;;;;;;;;;;;;;;6137405;23;19948;-77
2023/03/07 17:35:13;;;;;;;;;;;;;;;;;;6087234;23;19916;-78
2023/03/07 17:37:38;;;;;;;;;;;;;;;;;;6137284;23;19909;-77
2023/03/07 17:40:08;;;;;;;;;;;;;;;;;;6109026;23;20367;-79
2023/03/07 17:42:34;;;;;;;;;;;;;;;;;;6137688;23;19960;-77
2023/03/07 17:45:00;;;;;;;;;;;;;;;;;;6136285;23;19909;-77
2023/03/07 17:47:29;;;;;;;;;;;;;;;;;;6111490;23;19909;-78
2023/03/07 17:49:57;;;;;;;;;;;;;;;;;;6156046;23;19919;-76
2023/03/07 17:52:23;;;;;;;;;;;;;;;;;;6153778;23;19936;-77
2023/03/07 17:54:48;;;;;;;;;;;;;;;;;;6129324;23;19909;-77
2023/03/07 17:57:14;;;;;;;;;;;;;;;;;;6127776;23;19932;-78
2023/03/07 17:59:40;;;;;;;;;;;;;;;;;;6130643;23;19943;-77
2023/03/07 18:02:06;;;;;;;;;;;;;;;;;;6152341;23;19916;-78
2023/03/07 18:04:32;;;;;;;;;;;;;;;;;;6080303;23;19909;-77
2023/03/07 18:06:57;;;;;;;;;;;;;;;;;;6127691;23;19909;-78
2023/03/07 18:09:24;;;;;;;;;;;;;;;;;;6103165;23;19909;-79
2023/03/07 18:11:49;;;;;;;;;;;;;;;;;;6128017;23;19933;-75
2023/03/07 18:14:15;;;;;;;;;;;;;;;;;;6103302;23;19916;-78
2023/03/07 18:16:42;;;;;;;;;;;;;;;;;;6128240;23;20236;-77
2023/03/07 18:19:08;;;;;;;;;;;;;;;;;;6128036;23;19909;-76
2023/03/07 18:21:33;;;;;;;;;;;;;;;;;;6131473;23;19913;-76
2023/03/07 18:23:59;;;;;;;;;;;;;;;;;;6128665;23;19909;-75
2023/03/07 18:26:25;;;;;;;;;;;;;;;;;;6154295;23;19916;-77
2023/03/07 18:28:52;;;;;;;;;;;;;;;;;;6132580;23;20328;-76
2023/03/07 18:31:17;;;;;;;;;;;;;;;;;;6134501;23;19913;-78
2023/03/07 18:33:43;;;;;;;;;;;;;;;;;;6133298;23;19909;-76
2023/03/07 18:36:09;;;;;;;;;;;;;;;;;;6107992;23;19924;-78
2023/03/07 18:38:34;;;;;;;;;;;;;;;;;;6107673;23;19920;-76
2023/03/07 18:41:00;;;;;;;;;;;;;;;;;;6133735;23;19916;-78
2023/03/07 18:43:25;;;;;;;;;;;;;;;;;;6133012;23;19913;-78
2023/03/07 18:45:51;;;;;;;;;;;;;;;;;;6107599;23;19957;-78
2023/03/07 18:48:17;;;;;;;;;;;;;;;;;;6132375;23;19909;-78
2023/03/07 18:50:43;;;;;;;;;;;;;;;;;;6110692;23;19924;-76
2023/03/07 18:53:08;;;;;;;;;;;;;;;;;;6108092;23;20327;-76
2023/03/07 18:55:34;;;;;;;;;;;;;;;;;;6086115;23;19937;-76
2023/03/07 18:57:59;;;;;;;;;;;;;;;;;;6157863;23;20331;-78
2023/03/07 19:00:25;;;;;;;;;;;;;;;;;;6132750;23;19909;-76
2023/03/07 19:02:50;;;;;;;;;;;;;;;;;;6108102;23;20312;-76
2023/03/07 19:05:18;;;;;;;;;;;;;;;;;;6131626;23;19909;-78
2023/03/07 19:07:44;;;;;;;;;;;;;;;;;;6132411;23;20347;-78
2023/03/07 19:10:09;;;;;;;;;;;;;;;;;;6131242;23;19913;-78
2023/03/07 19:12:35;;;;;;;;;;;;;;;;;;6104642;23;20224;-76
2023/03/07 19:15:00;;;;;;;;;;;;;;;;;;6151074;23;19909;-77
2023/03/07 19:17:26;;;;;;;;;;;;;;;;;;6126603;23;19916;-78
2023/03/07 19:19:57;;;;;;;;;;;;;;;;;;6126160;23;19992;-78
2023/03/07 19:22:24;;;;;;;;;;;;;;;;;;6125872;23;19908;-77
2023/03/07 19:24:49;;;;;;;;;;;;;;;;;;6126012;23;19912;-76
2023/03/07 19:27:15;;;;;;;;;;;;;;;;;;6101532;23;19909;-77
2023/03/07 19:29:40;;;;;;;;;;;;;;;;;;6127629;23;19913;-78
2023/03/07 19:32:06;;;;;;;;;;;;;;;;;;6129319;23;19909;-81